createdAt,value
2022-10-23T00:24:43.641Z,1.20
2022-10-23T00:30:14.157Z,1.70
2022-10-23T00:35:17.370Z,1.40
2022-10-23T00:40:38.403Z,1.48
2022-10-23T00:45:45.700Z,1.30
2022-10-23T00:50:58.337Z,1.00
2022-10-23T01:09:45.686Z,1.25
2022-10-23T01:23:36.216Z,0.88
2022-10-23T01:36:52.737Z,0.68
2022-10-23T02:03:16.500Z,1.42
2022-10-23T02:21:32.476Z,1.85
2022-10-23T02:27:13.599Z,1.20
2022-10-23T02:47:58.846Z,0.40
2022-10-23T02:55:23.168Z,1.00
2022-10-23T03:08:01.439Z,0.25
2022-10-23T03:14:16.053Z,0.28
2022-10-23T04:37:53.398Z,0.10
2022-10-23T04:56:35.898Z,0.60
2022-10-23T05:36:36.904Z,0.40
2022-10-23T06:11:13.273Z,1.40
2022-10-23T06:23:59.980Z,1.10
2022-10-23T07:46:28.793Z,3.53
2022-10-23T07:58:31.340Z,1.10
2022-10-23T08:10:05.550Z,2.08
2022-10-23T08:15:30.279Z,2.72
2022-10-23T08:53:47.205Z,1.20
2022-10-23T10:50:35.333Z,1.08
2022-10-23T11:31:20.208Z,2.10
2022-10-23T11:36:46.004Z,5.13
2022-10-23T11:41:54.801Z,4.88
2022-10-23T11:54:27.496Z,3.92
2022-10-23T12:34:24.534Z,3.13
2022-10-23T13:15:31.236Z,1.52
2022-10-23T14:35:52.867Z,3.28
2022-10-23T17:17:52.458Z,3.83
2022-10-23T17:23:00.726Z,4.53
2022-10-23T17:28:37.996Z,3.45
2022-10-23T17:33:42.035Z,3.80
2022-10-23T17:50:57.703Z,7.88
2022-10-23T17:57:01.701Z,5.63
2022-10-23T18:03:55.055Z,6.07
2022-10-23T18:09:20.381Z,4.93
2022-10-23T18:15:14.781Z,3.35
2022-10-23T18:20:27.991Z,4.68
2022-10-23T18:26:06.134Z,8.20
2022-10-23T18:31:27.391Z,7.07
2022-10-23T18:36:46.102Z,6.30
2022-10-23T18:48:01.676Z,4.65
2022-10-23T19:04:36.524Z,3.75
2022-10-23T19:21:43.526Z,3.75
2022-10-23T19:26:51.076Z,3.65
2022-10-23T19:32:20.422Z,3.05
2022-10-23T19:37:32.863Z,4.47
2022-10-23T19:42:44.598Z,3.13
2022-10-23T19:47:53.287Z,2.63
2022-10-23T19:53:01.553Z,4.25
2022-10-23T19:58:23.070Z,3.28
2022-10-23T20:03:29.601Z,4.07
2022-10-23T20:08:58.557Z,3.90
2022-10-23T20:14:07.594Z,3.08
2022-10-23T20:19:19.845Z,5.13
2022-10-23T20:24:26.494Z,2.63
2022-10-23T20:29:31.183Z,5.28
2022-10-23T20:34:40.633Z,3.03
2022-10-23T20:39:45.574Z,3.25
2022-10-23T20:44:53.643Z,1.98
2022-10-23T20:55:01.231Z,4.35
2022-10-23T21:00:05.784Z,2.83
2022-10-23T21:05:09.635Z,2.55
2022-10-23T21:10:12.150Z,2.75
2022-10-23T21:15:14.540Z,2.97
2022-10-23T21:20:21.825Z,2.90
2022-10-23T21:25:25.737Z,4.38
2022-10-23T21:30:28.251Z,2.28
2022-10-23T21:35:37.828Z,2.60
2022-10-23T21:40:50.128Z,3.95
2022-10-23T21:45:55.488Z,2.08
2022-10-23T21:51:00.872Z,3.50
2022-10-23T21:56:13.444Z,3.85
2022-10-23T22:01:15.747Z,1.65
2022-10-23T22:06:28.013Z,3.05
2022-10-23T22:11:33.641Z,1.95
2022-10-23T22:16:36.293Z,1.77
2022-10-23T22:21:38.632Z,2.58
2022-10-23T22:26:52.473Z,1.15
2022-10-23T22:31:55.393Z,1.60
2022-10-23T22:37:00.803Z,3.55
2022-10-23T22:42:08.519Z,1.25
2022-10-23T22:47:12.805Z,1.50
2022-10-23T22:52:16.890Z,2.17
2022-10-23T22:57:22.409Z,3.72
2022-10-23T23:02:26.798Z,2.08
2022-10-23T23:07:34.198Z,3.72
2022-10-23T23:12:42.074Z,2.38
2022-10-23T23:17:46.807Z,1.45
2022-10-23T23:22:50.355Z,1.42
2022-10-23T23:27:52.896Z,1.83
2022-10-23T23:32:59.769Z,1.75
2022-10-23T23:38:10.621Z,2.03
2022-10-23T23:43:50.345Z,2.92
2022-10-23T23:50:01.852Z,1.25
